Terminal Aerodrome Forecast
Issued by NWS Topeka, KS

Home | Current Version | Previous Version | Graphics & Text | Print | Product List | Glossary On
Versions: 1 2 3 4 5 6 7 8 9 10 11 12 13
000
FTUS43 KTOP 081120
TAFTOP
TAF
KTOP 081120Z 0812/0912 21005KT P6SM SCT100 BKN250
     FM081830 30008KT P6SM BKN040
     FM090200 29006KT P6SM SCT250=

USA.gov is the U.S. government's official web portal to all federal, state and local government web resources and services.